Search for airport 
image banner adimage banner adimage banner ad
image banner ad

7CA4 - Desert Regional Medical Center

Located in Palm Springs, United States

ICAO - 7CA4, IATA -

Data provided by Airmate  

General information

Coordinates: N33°50'18" W116°32'38"
Elevation is 560 feet MSL.
 
View others Airports in California

Operational data

Special qualification required
Current time UTC:
Current local time:
Weather at : KPSP - Palm Springs Intl ( 4 km )
METAR: KPSP 150953Z 00000KT 10SM CLR 32/07 A2976 RMK AO2 SLP070 T03170072 $
TAF: KPSP 150520Z 1506/1606 VRB04KT P6SM SCT250 FM160200 32008KT P6SM SCT250
View NOTAMs / SUP AIP / TFR affecting this airport [VIEW]
Communications frequencies: [VIEW]

Runways:

Airport contact information

Address: Palm Springs United States

Satellite view of 7CA4